Time;durP1;ratioP1;P1;durP2;ratioP2;P2;SDS_P1;SDS_P2;PMS_P1;PMS_P2;Temp;Humidity;BMP_temperature;BMP_pressure;BME280_temperature;BME280_humidity;BME280_pressure;Samples;Min_cycle;Max_cycle;Signal;HPM_P1;HPM_P2
2022/03/12 00:00:54;;;;;;;10.90;5.82;;;7.60;97.70;;;;;;5025195;28;20049;-80
2022/03/12 00:03:21;;;;;;;8.20;5.85;;;7.70;97.40;;;;;;5009769;28;20056;-80
2022/03/12 00:05:54;;;;;;;9.75;6.28;;;6.50;96.90;;;;;;5036868;28;20041;-80
2022/03/12 00:08:43;;;;;;;10.02;5.70;;;7.70;97.10;;;;;;5009719;28;20053;-80
2022/03/12 00:11:18;;;;;;;10.15;5.55;;;7.80;97.00;;;;;;5017218;28;20048;-80
2022/03/12 00:13:46;;;;;;;7.50;5.63;;;7.80;96.90;;;;;;5002622;28;20077;-79
2022/03/12 00:16:15;;;;;;;8.13;5.97;;;7.80;96.80;;;;;;5035248;28;20053;-80
2022/03/12 00:18:49;;;;;;;9.05;6.07;;;7.80;96.50;;;;;;5000386;28;20055;-80
2022/03/12 00:21:15;;;;;;;9.23;5.68;;;7.20;96.20;;;;;;5021707;28;20046;-79
2022/03/12 00:23:45;;;;;;;12.30;6.43;;;7.80;96.30;;;;;;5010331;28;20045;-81
2022/03/12 00:26:16;;;;;;;7.80;5.68;;;7.80;96.10;;;;;;5008291;28;20053;-80
2022/03/12 00:28:43;;;;;;;8.15;6.07;;;7.90;96.10;;;;;;5003221;28;20065;-79
2022/03/12 00:31:10;;;;;;;10.35;5.88;;;7.90;95.90;;;;;;5000501;28;20396;-80
2022/03/12 00:33:36;;;;;;;10.85;5.75;;;7.90;95.70;;;;;;5010672;28;20054;-81
2022/03/12 00:36:06;;;;;;;8.05;5.68;;;7.90;95.70;;;;;;5000690;28;20098;-81
2022/03/12 00:38:32;;;;;;;9.15;5.53;;;7.90;95.50;;;;;;5016984;28;20049;-80
2022/03/12 00:41:03;;;;;;;8.57;5.90;;;7.90;95.40;;;;;;5017841;28;20044;-79
2022/03/12 00:43:28;;;;;;;8.13;5.75;;;7.90;95.30;;;;;;4988311;28;20056;-80
2022/03/12 00:45:54;;;;;;;9.05;5.97;;;7.90;95.30;;;;;;5000406;28;20053;-80
2022/03/12 00:48:20;;;;;;;9.85;5.57;;;7.90;95.10;;;;;;5010471;28;20050;-80
2022/03/12 00:50:45;;;;;;;9.15;5.95;;;7.90;94.90;;;;;;5001179;28;20052;-79
2022/03/12 00:53:11;;;;;;;9.43;5.47;;;7.90;94.90;;;;;;5009023;28;20105;-80
2022/03/12 00:55:37;;;;;;;7.82;5.70;;;7.90;94.80;;;;;;4998745;28;20385;-80
2022/03/12 00:58:03;;;;;;;7.60;5.32;;;8.00;95.00;;;;;;5002595;28;20124;-79
2022/03/12 01:00:29;;;;;;;7.55;5.80;;;7.60;95.00;;;;;;5003936;28;20141;-79
2022/03/12 01:02:55;;;;;;;9.70;5.50;;;7.90;95.00;;;;;;5003032;28;20089;-81
2022/03/12 01:05:39;;;;;;;9.93;5.70;;;7.90;95.00;;;;;;4987194;28;20077;-81
2022/03/12 01:08:05;;;;;;;7.90;5.53;;;7.90;94.80;;;;;;5013088;28;20050;-81
2022/03/12 01:10:31;;;;;;;9.32;5.55;;;7.90;94.90;;;;;;5002861;28;20144;-80
2022/03/12 01:12:57;;;;;;;7.05;5.30;;;7.80;94.60;;;;;;5008324;28;20046;-80
2022/03/12 01:15:23;;;;;;;8.20;5.30;;;7.90;94.30;;;;;;5017553;28;20107;-78
2022/03/12 01:17:48;;;;;;;8.23;5.55;;;7.90;94.30;;;;;;5017677;28;20128;-79
2022/03/12 01:20:14;;;;;;;7.88;5.32;;;7.90;94.40;;;;;;5016853;28;20396;-79
2022/03/12 01:22:41;;;;;;;8.15;5.18;;;7.90;94.40;;;;;;5024376;28;20053;-80
2022/03/12 01:25:07;;;;;;;6.97;4.93;;;7.90;94.50;;;;;;5017113;28;20061;-80
2022/03/12 01:27:34;;;;;;;7.65;5.55;;;7.80;94.50;;;;;;5008140;28;20058;-79
2022/03/12 01:30:01;;;;;;;7.85;5.20;;;8.60;94.80;;;;;;5002355;28;20072;-79
2022/03/12 01:32:27;;;;;;;7.10;5.57;;;7.80;94.60;;;;;;5009664;28;20111;-79
2022/03/12 01:34:52;;;;;;;9.07;5.78;;;7.80;94.60;;;;;;5001977;28;20065;-79
2022/03/12 01:37:19;;;;;;;6.95;4.85;;;7.80;94.60;;;;;;5001900;28;20045;-79
2022/03/12 01:39:49;;;;;;;6.97;4.95;;;7.80;94.60;;;;;;5018782;28;20066;-79
2022/03/12 01:42:15;;;;;;;10.13;5.60;;;7.80;94.60;;;;;;5034656;28;20069;-79
2022/03/12 01:44:43;;;;;;;9.23;5.90;;;6.70;94.40;;;;;;5001268;28;20050;-80
2022/03/12 01:47:10;;;;;;;8.45;5.50;;;8.70;94.90;;;;;;5001176;28;20045;-78
2022/03/12 01:49:37;;;;;;;9.00;5.43;;;7.70;94.60;;;;;;5020160;28;20057;-79
2022/03/12 01:52:04;;;;;;;7.80;5.40;;;7.80;94.60;;;;;;5016788;28;20118;-78
2022/03/12 01:54:31;;;;;;;6.20;4.80;;;7.70;94.60;;;;;;5017303;28;20067;-77
2022/03/12 01:56:58;;;;;;;8.00;5.60;;;7.70;94.80;;;;;;5016690;28;20348;-78
2022/03/12 01:59:24;;;;;;;8.15;5.55;;;7.70;94.70;;;;;;5018119;28;20057;-79
2022/03/12 02:01:55;;;;;;;7.45;5.32;;;7.70;94.70;;;;;;5014229;28;20050;-79
2022/03/12 02:04:25;;;;;;;9.52;5.07;;;7.70;94.60;;;;;;5008701;28;20053;-79
2022/03/12 02:06:52;;;;;;;8.15;5.25;;;7.70;94.70;;;;;;5016436;28;20057;-79
2022/03/12 02:09:20;;;;;;;7.55;5.20;;;7.70;94.70;;;;;;5009605;28;20058;-80
2022/03/12 02:11:52;;;;;;;6.60;5.13;;;7.70;94.70;;;;;;5001336;28;20042;-79
2022/03/12 02:14:27;;;;;;;9.60;5.63;;;7.70;94.80;;;;;;5009255;28;20395;-79
2022/03/12 02:16:59;;;;;;;12.40;6.13;;;7.70;94.60;;;;;;5000880;28;20566;-80
2022/03/12 02:19:26;;;;;;;9.27;5.15;;;7.70;94.70;;;;;;5016599;28;20049;-79
2022/03/12 02:21:55;;;;;;;8.85;4.95;;;7.70;94.80;;;;;;5011822;28;20133;-79
2022/03/12 02:24:23;;;;;;;10.02;5.68;;;7.90;94.90;;;;;;5013359;28;20102;-79
2022/03/12 02:26:50;;;;;;;7.00;4.63;;;7.70;94.90;;;;;;5002786;28;20084;-80
2022/03/12 02:29:20;;;;;;;7.68;5.03;;;7.60;94.90;;;;;;5004144;28;20128;-79
2022/03/12 02:31:49;;;;;;;8.73;5.25;;;7.60;95.00;;;;;;5011777;28;20057;-79
2022/03/12 02:34:22;;;;;;;7.55;4.80;;;7.60;95.00;;;;;;5005296;28;20598;-79
2022/03/12 02:36:52;;;;;;;7.88;5.40;;;7.60;95.00;;;;;;5004300;28;20426;-80
2022/03/12 02:39:20;;;;;;;7.40;4.90;;;7.60;95.20;;;;;;5020503;28;20049;-79
2022/03/12 02:41:47;;;;;;;8.75;5.57;;;7.50;95.30;;;;;;5012400;28;20065;-79
2022/03/12 02:44:21;;;;;;;8.60;5.72;;;7.50;95.20;;;;;;5012617;28;20084;-80
2022/03/12 02:47:15;;;;;;;6.80;4.70;;;7.50;95.30;;;;;;5019081;28;20049;-79
2022/03/12 02:49:53;;;;;;;9.27;5.90;;;7.50;95.70;;;;;;4998367;28;20057;-80
2022/03/12 02:52:22;;;;;;;8.20;5.28;;;7.50;95.80;;;;;;5020577;28;20053;-80
2022/03/12 02:54:50;;;;;;;9.32;5.72;;;7.40;95.80;;;;;;4994727;28;20216;-80
2022/03/12 02:57:17;;;;;;;7.47;5.10;;;7.40;95.90;;;;;;5009345;28;20495;-80
2022/03/12 02:59:45;;;;;;;7.70;4.88;;;7.50;96.00;;;;;;5001727;28;20100;-81
2022/03/12 03:02:12;;;;;;;7.65;5.10;;;7.40;96.10;;;;;;5002303;28;20104;-79
2022/03/12 03:04:40;;;;;;;8.35;5.47;;;7.40;96.50;;;;;;5003621;28;20060;-80
2022/03/12 03:07:08;;;;;;;7.47;5.15;;;7.40;96.90;;;;;;5019440;28;20054;-79
2022/03/12 03:09:34;;;;;;;8.52;5.50;;;7.30;97.40;;;;;;5027635;28;20053;-80
2022/03/12 03:12:06;;;;;;;8.05;5.32;;;7.30;97.80;;;;;;5017835;28;20106;-80
2022/03/12 03:14:32;;;;;;;7.35;5.43;;;7.30;98.30;;;;;;5006022;28;20073;-79
2022/03/12 03:17:00;;;;;;;9.45;5.35;;;7.20;99.00;;;;;;4984600;28;20080;-80
2022/03/12 03:19:26;;;;;;;13.05;6.13;;;7.20;99.50;;;;;;5004188;28;20055;-79
2022/03/12 03:21:58;;;;;;;8.93;5.75;;;7.20;99.90;;;;;;5011343;28;20149;-80
2022/03/12 03:24:25;;;;;;;10.15;6.18;;;7.10;99.90;;;;;;5004692;28;20064;-80
2022/03/12 03:26:54;;;;;;;9.27;5.88;;;7.00;99.90;;;;;;4985351;28;20068;-80
2022/03/12 03:29:22;;;;;;;7.68;5.93;;;7.00;99.90;;;;;;5004384;28;20419;-81
2022/03/12 03:31:49;;;;;;;8.32;6.05;;;6.90;99.90;;;;;;5002637;28;20158;-80
2022/03/12 03:34:16;;;;;;;10.32;6.80;;;6.90;99.90;;;;;;5020985;28;20045;-79
2022/03/12 03:36:42;;;;;;;9.10;6.95;;;7.00;99.90;;;;;;5001990;28;20045;-78
2022/03/12 03:39:08;;;;;;;8.25;6.35;;;6.80;99.90;;;;;;5010422;28;20049;-79
2022/03/12 03:41:34;;;;;;;12.82;6.68;;;6.70;99.90;;;;;;5003412;28;20049;-79
2022/03/12 03:44:00;;;;;;;10.05;6.72;;;6.60;99.90;;;;;;5003342;28;20058;-79
2022/03/12 03:46:26;;;;;;;9.52;7.10;;;6.90;99.90;;;;;;5017619;28;20077;-79
2022/03/12 03:48:53;;;;;;;10.50;6.78;;;6.50;99.90;;;;;;5009606;28;20049;-78
2022/03/12 03:51:20;;;;;;;8.93;6.50;;;6.40;99.90;;;;;;5018589;28;20534;-78
2022/03/12 03:53:47;;;;;;;10.23;6.82;;;7.30;99.90;;;;;;5017781;28;20495;-79
2022/03/12 03:56:14;;;;;;;9.40;6.78;;;6.30;99.90;;;;;;5010644;28;20111;-78
2022/03/12 03:58:40;;;;;;;11.88;6.90;;;6.30;99.90;;;;;;5010623;28;20052;-78
2022/03/12 04:01:16;;;;;;;10.48;7.60;;;6.20;99.90;;;;;;5019133;28;20046;-78
2022/03/12 04:03:49;;;;;;;9.27;6.78;;;6.20;99.90;;;;;;5037588;28;20050;-78
2022/03/12 04:06:16;;;;;;;9.70;7.25;;;6.10;99.90;;;;;;5019300;28;20045;-78
2022/03/12 04:08:42;;;;;;;8.98;6.85;;;6.90;99.90;;;;;;5017023;28;20106;-77
2022/03/12 04:11:14;;;;;;;9.38;7.38;;;6.00;99.90;;;;;;5018325;28;20049;-78
2022/03/12 04:13:40;;;;;;;10.18;7.53;;;6.00;99.90;;;;;;5017720;28;20061;-79
2022/03/12 04:16:06;;;;;;;10.88;7.00;;;6.00;99.90;;;;;;5008656;28;20705;-77
2022/03/12 04:18:32;;;;;;;10.55;7.22;;;6.00;99.90;;;;;;5009361;28;20050;-78
2022/03/12 04:20:58;;;;;;;8.55;6.65;;;5.90;99.90;;;;;;5009433;28;20812;-78
2022/03/12 04:23:25;;;;;;;10.18;7.47;;;5.80;99.90;;;;;;5019072;28;20049;-78
2022/03/12 04:25:56;;;;;;;12.10;7.50;;;5.80;99.90;;;;;;5008164;28;20056;-79
2022/03/12 04:28:24;;;;;;;10.35;7.60;;;6.70;99.90;;;;;;5000154;28;20164;-78
2022/03/12 04:30:52;;;;;;;11.32;6.97;;;5.80;99.90;;;;;;5009435;28;20093;-78
2022/03/12 04:33:21;;;;;;;11.07;7.72;;;5.70;99.90;;;;;;5002174;28;20053;-77
2022/03/12 04:35:49;;;;;;;10.60;7.50;;;5.70;99.90;;;;;;5008817;28;20101;-78
2022/03/12 04:38:15;;;;;;;10.52;7.30;;;6.20;99.90;;;;;;5017315;28;20061;-77
2022/03/12 04:40:43;;;;;;;9.88;6.90;;;6.40;99.90;;;;;;5008764;28;20499;-79
2022/03/12 04:43:10;;;;;;;10.13;6.95;;;5.70;99.90;;;;;;5001771;28;20687;-78
2022/03/12 04:45:36;;;;;;;10.45;7.68;;;6.60;99.90;;;;;;5001682;28;20081;-79
2022/03/12 04:48:02;;;;;;;11.10;8.00;;;5.70;99.90;;;;;;4984252;28;20375;-78
2022/03/12 04:50:28;;;;;;;10.18;7.68;;;5.70;99.90;;;;;;5033970;28;20551;-78
2022/03/12 04:52:57;;;;;;;11.30;7.75;;;5.70;99.90;;;;;;5001599;28;20423;-78
2022/03/12 04:55:25;;;;;;;9.65;6.70;;;5.70;99.90;;;;;;5000262;28;20132;-79
2022/03/12 04:57:52;;;;;;;12.00;7.75;;;5.80;99.90;;;;;;5015724;28;20053;-79
2022/03/12 05:00:26;;;;;;;10.60;7.40;;;5.70;99.90;;;;;;5017372;28;20049;-78
2022/03/12 05:03:04;;;;;;;9.18;7.15;;;5.80;99.90;;;;;;5008539;28;20133;-80
2022/03/12 05:05:30;;;;;;;9.13;7.20;;;5.70;99.90;;;;;;5016996;28;20058;-79
2022/03/12 05:07:59;;;;;;;10.73;7.47;;;5.80;99.90;;;;;;5001398;28;20383;-79
2022/03/12 05:10:29;;;;;;;9.55;7.50;;;5.70;99.90;;;;;;4984316;28;20045;-78
2022/03/12 05:12:58;;;;;;;10.38;7.40;;;5.70;99.90;;;;;;5007639;28;20073;-79
2022/03/12 05:15:24;;;;;;;10.20;7.35;;;5.80;99.90;;;;;;5001861;28;20054;-78
2022/03/12 05:17:51;;;;;;;10.25;7.55;;;5.80;99.90;;;;;;5016556;28;20050;-78
2022/03/12 05:20:23;;;;;;;10.55;7.85;;;5.80;99.90;;;;;;4984566;28;20041;-78
2022/03/12 05:22:49;;;;;;;10.93;7.47;;;5.80;99.90;;;;;;5006803;28;20045;-77
2022/03/12 05:25:18;;;;;;;11.80;7.45;;;5.90;99.90;;;;;;5015649;28;20057;-78
2022/03/12 05:27:53;;;;;;;10.35;6.95;;;5.80;99.90;;;;;;4985934;28;20058;-78
2022/03/12 05:30:20;;;;;;;12.15;7.70;;;5.80;99.90;;;;;;5016702;28;20064;-78
2022/03/12 05:32:46;;;;;;;9.52;7.40;;;5.80;99.90;;;;;;5009072;28;20049;-78
2022/03/12 05:35:12;;;;;;;10.65;7.45;;;5.70;99.90;;;;;;5017955;28;20045;-78
2022/03/12 05:37:38;;;;;;;11.40;7.75;;;5.70;99.90;;;;;;4985473;28;20380;-79
2022/03/12 05:40:07;;;;;;;12.27;7.78;;;5.70;99.90;;;;;;5000516;28;20053;-80
2022/03/12 05:42:34;;;;;;;10.43;7.35;;;5.60;99.90;;;;;;5017571;28;20132;-79
2022/03/12 05:45:07;;;;;;;9.77;7.25;;;5.60;99.90;;;;;;5002746;28;20049;-80
2022/03/12 05:47:36;;;;;;;13.25;7.95;;;5.60;99.90;;;;;;5002320;28;20053;-79
2022/03/12 05:50:09;;;;;;;10.10;7.25;;;5.50;99.90;;;;;;5001910;28;20049;-80
2022/03/12 05:52:40;;;;;;;11.55;7.85;;;5.50;99.90;;;;;;5016954;28;20476;-80
2022/03/12 05:55:08;;;;;;;10.13;7.53;;;5.50;99.90;;;;;;5018185;28;20095;-80
2022/03/12 05:57:33;;;;;;;9.80;7.07;;;5.40;99.90;;;;;;5020238;28;20108;-80
2022/03/12 06:00:02;;;;;;;9.43;7.28;;;5.70;99.90;;;;;;5004858;28;20545;-79
2022/03/12 06:02:29;;;;;;;11.05;7.47;;;5.30;99.90;;;;;;5020945;28;20046;-80
2022/03/12 06:04:59;;;;;;;9.75;7.38;;;5.30;99.90;;;;;;5022077;28;20089;-81
2022/03/12 06:07:27;;;;;;;10.07;7.35;;;5.30;99.90;;;;;;5005178;28;20053;-80
2022/03/12 06:09:57;;;;;;;10.32;7.30;;;5.30;99.90;;;;;;5019576;28;20049;-79
2022/03/12 06:12:26;;;;;;;9.35;7.30;;;6.20;99.90;;;;;;5006551;28;20080;-80
2022/03/12 06:14:56;;;;;;;9.93;7.15;;;5.60;99.90;;;;;;5012850;28;20053;-80
2022/03/12 06:17:24;;;;;;;10.82;7.63;;;5.50;99.90;;;;;;5016101;28;20166;-77
2022/03/12 06:19:51;;;;;;;11.82;7.78;;;5.20;99.90;;;;;;5036834;28;20112;-77
2022/03/12 06:22:17;;;;;;;9.55;6.82;;;5.10;99.90;;;;;;5010635;28;20041;-77
2022/03/12 06:24:44;;;;;;;11.40;7.45;;;5.10;99.90;;;;;;5018262;28;20061;-78
2022/03/12 06:27:10;;;;;;;13.00;7.15;;;5.20;99.90;;;;;;5001499;28;20057;-78
2022/03/12 06:29:36;;;;;;;15.48;7.43;;;5.30;99.90;;;;;;5003554;28;20068;-78
2022/03/12 06:32:04;;;;;;;11.35;7.32;;;5.20;99.90;;;;;;5002956;28;20049;-80
2022/03/12 06:34:30;;;;;;;8.95;7.07;;;5.10;99.90;;;;;;5003107;28;20513;-80
2022/03/12 06:36:56;;;;;;;12.32;7.28;;;5.70;99.90;;;;;;5002663;28;20077;-80
2022/03/12 06:39:22;;;;;;;9.93;7.43;;;5.10;99.90;;;;;;5011204;28;20565;-81
2022/03/12 06:41:47;;;;;;;10.70;6.93;;;5.20;99.90;;;;;;5003876;28;20551;-79
2022/03/12 06:44:14;;;;;;;11.32;7.30;;;6.10;99.90;;;;;;5019006;28;20049;-80
2022/03/12 06:46:40;;;;;;;10.73;7.53;;;5.00;99.90;;;;;;5011736;28;20061;-79
2022/03/12 06:49:06;;;;;;;10.80;6.88;;;5.20;99.90;;;;;;5003641;28;20037;-80
2022/03/12 06:51:32;;;;;;;12.60;7.32;;;5.00;99.90;;;;;;5011512;28;20056;-79
2022/03/12 06:53:58;;;;;;;9.35;6.95;;;5.30;99.90;;;;;;5021108;28;20053;-79
2022/03/12 06:56:24;;;;;;;10.50;7.35;;;5.50;99.90;;;;;;5019961;28;20042;-81
2022/03/12 06:58:51;;;;;;;12.27;6.63;;;5.60;99.90;;;;;;5002325;28;20048;-80
2022/03/12 07:01:19;;;;;;;13.35;7.68;;;5.40;99.90;;;;;;5001405;28;20045;-84
2022/03/12 07:03:46;;;;;;;11.15;7.78;;;5.40;99.90;;;;;;5017912;28;20115;-80
2022/03/12 07:06:12;;;;;;;11.48;7.40;;;4.20;99.90;;;;;;5003286;28;20486;-80
2022/03/12 07:08:38;;;;;;;11.20;8.18;;;5.50;99.90;;;;;;4992135;28;20049;-81
2022/03/12 07:11:05;;;;;;;9.98;7.82;;;5.50;99.90;;;;;;5004953;28;20049;-79
2022/03/12 07:13:31;;;;;;;10.35;7.55;;;5.60;99.90;;;;;;5002094;28;20188;-79
2022/03/12 07:16:00;;;;;;;10.15;7.45;;;5.70;99.90;;;;;;5010318;28;20131;-81
2022/03/12 07:18:27;;;;;;;10.50;7.53;;;5.70;99.90;;;;;;5017285;28;20267;-80
2022/03/12 07:20:52;;;;;;;9.98;7.07;;;5.80;99.90;;;;;;5009708;28;20052;-79
2022/03/12 07:23:20;;;;;;;10.93;7.70;;;5.90;99.90;;;;;;5003764;28;20054;-80
2022/03/12 07:25:53;;;;;;;10.55;7.55;;;6.00;99.90;;;;;;5020507;28;20057;-79
2022/03/12 07:28:20;;;;;;;9.57;6.93;;;6.00;99.90;;;;;;4986165;28;20060;-80
2022/03/12 07:30:46;;;;;;;11.18;8.02;;;6.10;99.90;;;;;;5009555;28;20399;-78
2022/03/12 07:33:12;;;;;;;10.45;7.65;;;6.20;99.90;;;;;;5000927;28;20057;-79
2022/03/12 07:35:37;;;;;;;10.48;7.30;;;6.30;99.90;;;;;;5004678;28;20049;-80
2022/03/12 07:38:04;;;;;;;9.95;6.80;;;6.40;99.90;;;;;;5013880;28;20045;-81
2022/03/12 07:40:31;;;;;;;11.23;7.32;;;6.40;99.90;;;;;;5016211;28;20107;-80
2022/03/12 07:42:56;;;;;;;9.75;6.45;;;6.50;99.90;;;;;;5009314;28;20038;-80
2022/03/12 07:45:22;;;;;;;13.25;7.40;;;6.60;99.90;;;;;;5014805;28;20597;-81
2022/03/12 07:47:49;;;;;;;11.65;7.60;;;6.60;99.90;;;;;;5003044;28;20112;-81
2022/03/12 07:50:15;;;;;;;12.27;8.00;;;6.70;99.90;;;;;;5016407;28;20080;-81
2022/03/12 07:52:42;;;;;;;10.55;7.38;;;6.70;99.90;;;;;;4985833;28;20201;-80
2022/03/12 07:55:09;;;;;;;11.10;7.75;;;6.80;99.90;;;;;;5005622;28;20052;-80
2022/03/12 07:57:37;;;;;;;10.82;7.18;;;7.00;99.90;;;;;;5003738;28;20388;-79
2022/03/12 08:00:06;;;;;;;11.50;7.68;;;7.00;99.90;;;;;;5015320;28;20120;-80
2022/03/12 08:02:32;;;;;;;11.38;7.18;;;7.20;99.90;;;;;;5014116;28;20045;-80
2022/03/12 08:04:58;;;;;;;12.40;7.43;;;7.30;99.90;;;;;;5009035;28;20488;-80
2022/03/12 08:07:26;;;;;;;9.75;7.50;;;7.40;99.90;;;;;;5016419;28;20236;-80
2022/03/12 08:09:56;;;;;;;12.05;7.93;;;7.50;99.90;;;;;;5001765;28;20495;-78
2022/03/12 08:12:28;;;;;;;9.30;7.75;;;7.60;99.90;;;;;;5015259;28;20057;-78
2022/03/12 08:14:54;;;;;;;11.02;7.95;;;7.80;99.90;;;;;;5004405;28;20404;-79
2022/03/12 08:17:20;;;;;;;11.68;8.02;;;7.90;99.90;;;;;;5006382;28;20142;-80
2022/03/12 08:19:46;;;;;;;10.40;7.80;;;8.10;99.90;;;;;;5000944;28;20084;-79
2022/03/12 08:22:13;;;;;;;11.82;8.48;;;8.10;99.90;;;;;;5002471;28;20034;-79
2022/03/12 08:24:39;;;;;;;11.60;7.80;;;8.30;99.90;;;;;;5018760;28;20041;-78
2022/03/12 08:27:06;;;;;;;12.32;8.13;;;8.40;99.90;;;;;;5002084;28;20053;-80
2022/03/12 08:29:32;;;;;;;11.13;7.82;;;8.50;99.90;;;;;;5009092;28;20060;-79
2022/03/12 08:31:57;;;;;;;12.13;7.45;;;8.60;99.90;;;;;;5016929;28;20041;-78
2022/03/12 08:34:27;;;;;;;11.55;7.72;;;8.80;99.90;;;;;;5013854;28;20045;-79
2022/03/12 08:36:53;;;;;;;11.35;7.78;;;8.90;99.90;;;;;;4997789;28;20053;-80
2022/03/12 08:39:19;;;;;;;11.23;7.80;;;9.00;99.90;;;;;;5013593;28;20054;-80
2022/03/12 08:41:45;;;;;;;11.35;7.65;;;9.10;99.90;;;;;;4983139;28;20048;-80
2022/03/12 08:44:12;;;;;;;14.48;7.68;;;9.20;99.90;;;;;;5002026;28;20584;-80
2022/03/12 08:46:42;;;;;;;11.25;7.40;;;9.30;99.90;;;;;;5006630;28;20041;-82
2022/03/12 08:49:07;;;;;;;11.55;7.70;;;9.40;99.90;;;;;;5032195;28;20041;-79
2022/03/12 08:51:33;;;;;;;10.10;7.80;;;9.50;99.90;;;;;;5007611;28;20038;-77
2022/03/12 08:53:59;;;;;;;10.13;7.80;;;9.60;99.90;;;;;;5000987;28;20502;-77
2022/03/12 08:56:25;;;;;;;12.18;7.50;;;9.70;99.90;;;;;;5007465;28;20129;-77
2022/03/12 08:58:51;;;;;;;11.25;7.63;;;9.90;99.90;;;;;;5009663;28;20064;-78
2022/03/12 09:01:18;;;;;;;10.00;7.10;;;10.00;99.90;;;;;;5007805;28;20080;-78
2022/03/12 09:03:45;;;;;;;9.23;7.05;;;10.10;99.90;;;;;;4984580;28;20119;-78
2022/03/12 09:06:11;;;;;;;10.15;7.65;;;10.30;99.90;;;;;;5007631;28;20053;-78
2022/03/12 09:08:37;;;;;;;8.70;6.80;;;10.40;99.90;;;;;;5015505;28;20060;-78
2022/03/12 09:11:04;;;;;;;9.07;7.05;;;10.50;99.90;;;;;;5002930;28;20064;-78
2022/03/12 09:13:30;;;;;;;18.42;10.32;;;10.60;99.90;;;;;;5001614;28;20049;-79
2022/03/12 09:15:56;;;;;;;7.97;6.43;;;10.80;99.90;;;;;;5000047;28;20057;-78
2022/03/12 09:18:23;;;;;;;8.70;6.30;;;11.00;99.90;;;;;;4999604;28;20630;-78
2022/03/12 09:20:49;;;;;;;7.93;6.55;;;11.10;99.90;;;;;;4999838;28;20061;-78
2022/03/12 09:23:18;;;;;;;10.63;6.45;;;11.30;99.90;;;;;;5007383;28;20041;-78
2022/03/12 09:25:45;;;;;;;9.45;6.35;;;11.50;99.90;;;;;;5032517;28;20061;-78
2022/03/12 09:28:13;;;;;;;7.82;5.85;;;11.60;99.90;;;;;;5015526;28;20107;-81
2022/03/12 09:30:39;;;;;;;8.82;5.80;;;11.70;99.90;;;;;;5003593;28;20041;-79
2022/03/12 09:33:06;;;;;;;7.85;5.47;;;11.80;99.90;;;;;;5004937;28;20042;-77
2022/03/12 09:35:32;;;;;;;7.47;6.03;;;11.90;99.90;;;;;;5011890;28;20072;-78
2022/03/12 09:37:59;;;;;;;8.52;5.93;;;12.00;99.90;;;;;;5020029;28;20151;-78
2022/03/12 09:40:25;;;;;;;7.50;5.93;;;12.10;99.90;;;;;;5019953;28;20056;-78
2022/03/12 09:42:51;;;;;;;7.88;5.47;;;12.40;99.90;;;;;;5004403;28;20053;-78
2022/03/12 09:45:20;;;;;;;6.35;5.60;;;12.60;99.90;;;;;;5011222;28;20406;-78
2022/03/12 09:47:46;;;;;;;7.43;5.75;;;13.00;99.90;;;;;;5005607;28;20072;-78
2022/03/12 09:50:12;;;;;;;8.15;5.82;;;13.20;99.90;;;;;;5004256;28;20053;-79
2022/03/12 09:52:38;;;;;;;7.80;5.68;;;13.30;99.90;;;;;;5012073;28;20057;-78
2022/03/12 09:55:04;;;;;;;9.02;5.63;;;13.40;99.90;;;;;;5003926;28;20053;-79
2022/03/12 09:57:30;;;;;;;6.57;5.13;;;13.40;99.90;;;;;;5003483;28;20451;-78
2022/03/12 09:59:56;;;;;;;9.95;6.13;;;13.40;99.90;;;;;;5011959;28;20116;-78
2022/03/12 10:02:22;;;;;;;8.35;5.70;;;13.50;99.90;;;;;;5020223;28;20144;-78
2022/03/12 10:04:48;;;;;;;6.97;5.50;;;13.60;99.90;;;;;;5019593;28;20380;-79
2022/03/12 10:07:15;;;;;;;6.38;4.55;;;13.80;99.90;;;;;;4988854;28;20081;-81
2022/03/12 10:09:41;;;;;;;6.90;4.78;;;14.00;99.90;;;;;;4986515;28;20050;-79
2022/03/12 10:12:07;;;;;;;5.53;3.95;;;14.10;99.90;;;;;;4988008;28;20053;-80
2022/03/12 10:14:35;;;;;;;6.20;4.13;;;14.20;99.90;;;;;;5000886;28;20136;-78
2022/03/12 10:17:02;;;;;;;6.07;4.00;;;14.30;99.90;;;;;;5002471;28;20045;-79
2022/03/12 10:19:38;;;;;;;6.97;4.00;;;14.30;99.90;;;;;;4988221;28;20053;-79
2022/03/12 10:22:05;;;;;;;8.02;4.03;;;14.40;99.90;;;;;;5019327;28;20050;-80
2022/03/12 10:24:32;;;;;;;6.13;4.03;;;14.30;99.90;;;;;;5019195;28;20056;-80
2022/03/12 10:26:58;;;;;;;5.50;4.20;;;14.20;99.90;;;;;;5003769;28;20049;-80
2022/03/12 10:29:24;;;;;;;5.68;3.60;;;14.20;99.90;;;;;;5017130;28;20169;-80
2022/03/12 10:31:50;;;;;;;5.65;4.40;;;14.20;99.90;;;;;;5000255;28;20056;-80
2022/03/12 10:34:18;;;;;;;5.32;4.03;;;14.30;99.90;;;;;;5009426;28;20042;-82
2022/03/12 10:36:46;;;;;;;8.10;4.05;;;14.30;99.90;;;;;;5016774;28;20102;-79
2022/03/12 10:39:12;;;;;;;6.50;4.20;;;14.40;99.90;;;;;;5017781;28;20052;-77
2022/03/12 10:41:41;;;;;;;6.75;4.15;;;13.90;99.90;;;;;;5009310;28;20082;-80
2022/03/12 10:44:08;;;;;;;5.22;3.80;;;14.40;99.90;;;;;;5037568;28;20042;-80
2022/03/12 10:46:35;;;;;;;7.25;4.05;;;14.50;99.90;;;;;;5010654;28;20037;-81
2022/03/12 10:49:03;;;;;;;5.35;4.10;;;14.40;99.90;;;;;;5007457;28;20049;-80
2022/03/12 10:51:37;;;;;;;5.30;3.90;;;14.40;99.90;;;;;;5022645;28;20049;-81
2022/03/12 10:54:15;;;;;;;5.85;4.00;;;14.50;99.90;;;;;;5020911;28;20056;-79
2022/03/12 10:56:49;;;;;;;6.93;3.85;;;14.50;99.90;;;;;;5023475;28;20085;-82
2022/03/12 10:59:24;;;;;;;7.28;4.57;;;14.50;99.90;;;;;;5020773;28;20055;-83
2022/03/12 11:01:54;;;;;;;7.10;4.20;;;14.50;99.90;;;;;;5011559;28;20061;-82
2022/03/12 11:04:34;;;;;;;5.43;3.88;;;14.60;99.90;;;;;;5019523;28;20053;-81
2022/03/12 11:07:20;;;;;;;5.90;4.07;;;14.80;99.90;;;;;;5006813;28;20048;-80
2022/03/12 11:09:47;;;;;;;10.82;4.10;;;14.70;99.90;;;;;;5001596;28;20057;-81
2022/03/12 11:12:29;;;;;;;6.63;4.65;;;14.80;99.90;;;;;;5010939;28;20045;-81
2022/03/12 11:15:15;;;;;;;7.43;4.38;;;14.90;99.90;;;;;;5018196;28;20065;-80
2022/03/12 11:17:43;;;;;;;5.40;3.38;;;15.00;99.90;;;;;;5016948;28;20053;-80
2022/03/12 11:20:21;;;;;;;4.75;3.05;;;15.10;99.90;;;;;;5016839;28;20137;-81
2022/03/12 11:23:13;;;;;;;8.60;3.55;;;15.10;99.90;;;;;;5020907;28;20068;-80
2022/03/12 11:26:04;;;;;;;4.50;3.22;;;15.00;99.90;;;;;;5008985;28;20049;-82
2022/03/12 11:28:30;;;;;;;5.75;3.53;;;15.10;99.90;;;;;;5015491;28;20058;-82
2022/03/12 11:30:56;;;;;;;7.95;3.90;;;15.10;99.90;;;;;;5016254;28;20049;-82
2022/03/12 11:33:25;;;;;;;16.33;4.88;;;14.80;99.90;;;;;;4999205;28;20055;-82
2022/03/12 11:35:59;;;;;;;3.95;3.00;;;15.00;99.90;;;;;;5005312;28;20045;-82
2022/03/12 11:38:25;;;;;;;6.57;3.50;;;15.40;99.90;;;;;;5024813;28;20072;-82
2022/03/12 11:41:02;;;;;;;8.57;4.38;;;15.50;99.90;;;;;;5010852;28;20763;-80
2022/03/12 11:43:32;;;;;;;5.65;3.38;;;15.60;99.90;;;;;;5017046;28;20053;-79
2022/03/12 11:46:03;;;;;;;6.07;3.58;;;15.80;99.90;;;;;;5006148;28;20058;-79
2022/03/12 11:48:38;;;;;;;5.60;3.08;;;16.00;99.90;;;;;;5014619;28;20062;-79
2022/03/12 11:51:20;;;;;;;4.80;2.88;;;16.30;99.90;;;;;;5002694;28;20045;-79
2022/03/12 11:53:46;;;;;;;6.10;2.88;;;16.40;99.90;;;;;;5005750;28;20119;-79
2022/03/12 11:56:16;;;;;;;4.07;2.88;;;16.80;99.90;;;;;;5015806;28;20042;-80
2022/03/12 11:58:46;;;;;;;5.45;3.10;;;17.20;99.90;;;;;;5029557;28;20081;-79
2022/03/12 12:01:20;;;;;;;5.18;3.30;;;17.10;99.90;;;;;;4984477;28;20108;-78
2022/03/12 12:03:49;;;;;;;5.70;3.10;;;16.70;99.90;;;;;;5015523;28;20135;-79
2022/03/12 12:06:14;;;;;;;3.60;3.00;;;16.30;99.90;;;;;;4999603;28;20103;-79
2022/03/12 12:08:41;;;;;;;5.72;3.00;;;15.90;99.90;;;;;;4996732;28;20132;-79
2022/03/12 12:11:07;;;;;;;5.88;2.92;;;15.60;99.90;;;;;;5001254;28;20660;-79
2022/03/12 12:13:33;;;;;;;6.10;3.10;;;15.40;99.90;;;;;;4997605;28;20041;-80
2022/03/12 12:15:59;;;;;;;6.43;3.00;;;15.30;99.90;;;;;;5013503;28;20053;-79
2022/03/12 12:18:25;;;;;;;5.55;3.20;;;15.40;99.90;;;;;;5013241;28;20075;-79
2022/03/12 12:20:51;;;;;;;5.60;3.28;;;15.40;99.90;;;;;;5001740;28;20045;-79
2022/03/12 12:23:19;;;;;;;7.00;3.67;;;15.30;99.90;;;;;;5013120;28;20403;-79
2022/03/12 12:25:45;;;;;;;6.18;3.63;;;15.10;99.90;;;;;;5014726;28;20052;-79
2022/03/12 12:28:20;;;;;;;4.05;3.00;;;14.90;99.90;;;;;;5013843;28;20411;-79
2022/03/12 12:30:54;;;;;;;6.77;3.80;;;14.80;99.90;;;;;;5031909;28;20076;-79
2022/03/12 12:33:29;;;;;;;5.85;3.10;;;14.80;99.90;;;;;;4998486;28;20181;-80
2022/03/12 12:36:15;;;;;;;7.20;3.20;;;14.80;99.90;;;;;;4990793;28;20041;-80
2022/03/12 12:39:12;;;;;;;5.50;3.13;;;15.10;99.90;;;;;;5006007;28;20548;-79
2022/03/12 12:42:01;;;;;;;5.20;3.10;;;15.10;99.90;;;;;;4998831;28;20057;-80
2022/03/12 12:44:40;;;;;;;6.20;3.22;;;15.30;99.90;;;;;;5013073;28;20049;-82
2022/03/12 12:47:08;;;;;;;5.55;2.88;;;15.60;99.90;;;;;;4999541;28;20120;-82
2022/03/12 12:49:43;;;;;;;4.97;3.10;;;15.90;99.90;;;;;;5015422;28;20073;-82
2022/03/12 12:52:10;;;;;;;4.80;3.40;;;16.30;99.90;;;;;;5015025;28;20628;-82
2022/03/12 12:54:56;;;;;;;4.13;2.95;;;16.20;99.90;;;;;;5032282;28;20125;-81
2022/03/12 12:57:45;;;;;;;5.13;3.05;;;16.20;99.90;;;;;;5015140;28;20093;-80